createdAt,value
2022-12-01T00:01:15.440Z,3.29
2022-12-01T00:03:43.003Z,3.27
2022-12-01T00:06:20.889Z,3.25
2022-12-01T00:09:09.643Z,3.18
2022-12-01T00:11:38.502Z,3.13
2022-12-01T00:14:06.115Z,3.09
2022-12-01T00:16:34.100Z,3.05
2022-12-01T00:19:01.462Z,2.94
2022-12-01T00:21:28.710Z,2.88
2022-12-01T00:23:57.638Z,2.79
2022-12-01T00:26:26.380Z,2.70
2022-12-01T00:28:55.968Z,2.65
2022-12-01T00:31:23.244Z,2.60
2022-12-01T00:33:50.464Z,2.56
2022-12-01T00:36:17.652Z,2.51
2022-12-01T00:38:44.978Z,2.49
2022-12-01T00:41:12.318Z,2.42
2022-12-01T00:43:39.878Z,2.31
2022-12-01T00:46:07.221Z,2.25
2022-12-01T00:48:34.410Z,2.16
2022-12-01T00:51:01.571Z,2.12
2022-12-01T00:53:29.001Z,2.06
2022-12-01T00:55:56.436Z,2.01
2022-12-01T00:58:24.617Z,1.95
2022-12-01T01:01:01.475Z,1.92
2022-12-01T01:03:30.623Z,1.91
2022-12-01T01:06:04.766Z,1.88
2022-12-01T01:08:32.526Z,1.83
2022-12-01T01:11:01.578Z,1.79
2022-12-01T01:13:29.353Z,1.74
2022-12-01T01:16:01.328Z,1.66
2022-12-01T01:18:28.852Z,1.60
2022-12-01T01:21:04.802Z,1.52
2022-12-01T01:23:32.112Z,1.50
2022-12-01T01:26:08.889Z,1.44
2022-12-01T01:28:36.475Z,1.42
2022-12-01T01:31:08.114Z,1.40
2022-12-01T01:33:35.615Z,1.39
2022-12-01T01:36:03.920Z,1.37
2022-12-01T01:38:32.226Z,1.35
2022-12-01T01:40:59.523Z,1.33
2022-12-01T01:43:49.362Z,1.27
2022-12-01T01:46:19.618Z,1.24
2022-12-01T01:48:51.350Z,1.21
2022-12-01T01:51:23.136Z,1.21
2022-12-01T01:53:54.250Z,1.23
2022-12-01T01:56:21.472Z,1.26
2022-12-01T01:58:49.179Z,1.29
2022-12-01T02:01:16.382Z,1.33
2022-12-01T02:03:45.529Z,1.34
2022-12-01T02:06:13.688Z,1.32
2022-12-01T02:08:40.837Z,1.32
2022-12-01T02:11:28.046Z,1.33
2022-12-01T02:14:28.600Z,1.33
2022-12-01T02:17:11.216Z,1.34
2022-12-01T02:20:14.165Z,1.35
2022-12-01T02:22:56.499Z,1.36
2022-12-01T02:25:48.842Z,1.33
2022-12-01T02:28:15.931Z,1.34
2022-12-01T02:30:49.554Z,1.26
2022-12-01T02:33:25.672Z,1.17
2022-12-01T02:36:16.487Z,1.13
2022-12-01T02:38:54.792Z,1.12
2022-12-01T02:41:29.646Z,1.12
2022-12-01T02:44:08.373Z,1.11
2022-12-01T02:46:57.711Z,1.08
2022-12-01T02:49:31.532Z,1.03
2022-12-01T02:51:59.146Z,0.99
2022-12-01T02:54:29.950Z,0.95
2022-12-01T02:56:57.032Z,0.96
2022-12-01T02:59:24.145Z,0.95
2022-12-01T03:02:11.843Z,1.01
2022-12-01T03:05:04.827Z,1.05
2022-12-01T03:07:55.234Z,1.00
2022-12-01T03:10:44.055Z,0.97
2022-12-01T03:13:38.806Z,0.98
2022-12-01T03:16:21.122Z,0.97
2022-12-01T03:18:56.576Z,0.94
2022-12-01T03:21:27.099Z,0.94
2022-12-01T03:24:12.074Z,0.91
2022-12-01T03:26:41.278Z,0.89
2022-12-01T03:29:11.329Z,0.89
2022-12-01T03:31:43.795Z,0.89
2022-12-01T03:34:18.328Z,0.91
2022-12-01T03:36:52.685Z,0.95
2022-12-01T03:39:26.596Z,0.94
2022-12-01T03:41:58.898Z,0.95
2022-12-01T03:44:31.395Z,0.93
2022-12-01T03:47:06.871Z,0.92
2022-12-01T03:49:34.299Z,0.93
2022-12-01T03:52:14.269Z,0.95
2022-12-01T03:55:02.484Z,0.90
2022-12-01T03:57:32.213Z,0.89
2022-12-01T03:59:59.456Z,0.88
2022-12-01T04:02:28.176Z,0.88
2022-12-01T04:04:55.384Z,0.89
2022-12-01T04:07:23.472Z,0.88
2022-12-01T04:09:51.148Z,0.89
2022-12-01T04:12:30.570Z,0.89
2022-12-01T04:14:58.450Z,0.90
2022-12-01T04:17:26.282Z,0.92
2022-12-01T04:19:53.881Z,0.94
2022-12-01T04:22:21.481Z,0.94
2022-12-01T04:24:48.913Z,0.92
2022-12-01T04:27:16.088Z,0.90
2022-12-01T04:29:43.379Z,0.92
2022-12-01T04:32:10.592Z,0.91
2022-12-01T04:34:37.657Z,0.93
2022-12-01T04:37:05.953Z,0.89
2022-12-01T04:39:34.294Z,0.88
2022-12-01T04:42:01.800Z,0.91
2022-12-01T04:44:34.312Z,0.89
2022-12-01T04:47:03.279Z,0.88
2022-12-01T04:49:30.787Z,0.89
2022-12-01T04:51:58.274Z,0.88
2022-12-01T04:54:25.652Z,0.88
2022-12-01T04:56:52.854Z,0.92
2022-12-01T04:59:19.952Z,0.89
2022-12-01T05:01:48.245Z,0.90
2022-12-01T05:04:15.643Z,0.94
2022-12-01T05:06:43.348Z,0.95
2022-12-01T05:09:17.116Z,0.95
2022-12-01T05:11:45.081Z,0.94
2022-12-01T05:14:12.266Z,0.93
2022-12-01T05:16:39.458Z,0.94
2022-12-01T05:19:25.478Z,0.95
2022-12-01T05:21:52.802Z,0.95
2022-12-01T05:24:20.840Z,0.93
2022-12-01T05:26:48.187Z,0.92
2022-12-01T05:29:15.377Z,0.86
2022-12-01T05:31:42.630Z,0.84
2022-12-01T05:34:09.899Z,0.84
2022-12-01T05:36:36.964Z,0.78
2022-12-01T05:39:05.029Z,0.77
2022-12-01T05:41:32.313Z,0.80
2022-12-01T05:43:59.414Z,0.80
2022-12-01T05:46:26.706Z,0.82
2022-12-01T05:48:53.974Z,0.84
2022-12-01T05:51:21.263Z,0.85
2022-12-01T05:53:48.396Z,0.83
2022-12-01T05:56:15.560Z,0.81
2022-12-01T05:58:42.724Z,0.80
2022-12-01T06:01:09.948Z,0.77
2022-12-01T06:03:37.115Z,0.77
2022-12-01T06:06:04.434Z,0.81
2022-12-01T06:08:31.584Z,0.81
2022-12-01T06:10:58.691Z,0.82
2022-12-01T06:13:26.102Z,0.83
2022-12-01T06:15:57.658Z,0.83
2022-12-01T06:18:26.197Z,0.85
2022-12-01T06:20:53.388Z,0.83
2022-12-01T06:23:20.701Z,0.83
2022-12-01T06:25:47.990Z,0.85
2022-12-01T06:28:15.336Z,0.81
2022-12-01T06:30:42.647Z,0.82
2022-12-01T06:33:09.712Z,0.83
2022-12-01T06:35:37.697Z,0.86
2022-12-01T06:38:05.086Z,0.88
2022-12-01T06:40:32.537Z,0.88
2022-12-01T06:43:02.158Z,0.87
2022-12-01T06:45:30.828Z,0.87
2022-12-01T06:47:58.164Z,0.89
2022-12-01T06:50:25.778Z,0.90
2022-12-01T06:52:53.132Z,0.94
2022-12-01T06:55:20.221Z,0.95
2022-12-01T06:57:47.587Z,0.92
2022-12-01T07:00:15.445Z,0.91
2022-12-01T07:02:42.813Z,0.93
2022-12-01T07:05:10.208Z,0.93
2022-12-01T07:07:39.179Z,0.92
2022-12-01T07:10:07.643Z,0.91
2022-12-01T07:12:34.957Z,0.88
2022-12-01T07:15:02.466Z,0.88
2022-12-01T07:17:29.845Z,0.87
2022-12-01T07:19:57.271Z,0.89
2022-12-01T07:22:28.117Z,0.87
2022-12-01T07:24:58.225Z,0.86
2022-12-01T07:27:25.388Z,0.83
2022-12-01T07:29:52.719Z,0.84
2022-12-01T07:32:19.991Z,0.81
2022-12-01T07:34:47.371Z,0.83
2022-12-01T07:37:14.506Z,0.86
2022-12-01T07:39:41.643Z,0.85
2022-12-01T07:42:08.829Z,0.87
2022-12-01T07:44:36.037Z,0.86
2022-12-01T07:47:03.293Z,0.84
2022-12-01T07:49:30.669Z,0.87
2022-12-01T07:51:57.868Z,0.84
2022-12-01T07:54:25.776Z,0.88
2022-12-01T07:56:53.139Z,0.86
2022-12-01T07:59:20.505Z,0.84
2022-12-01T08:01:47.810Z,0.82
2022-12-01T08:04:15.103Z,0.83
2022-12-01T08:06:42.286Z,0.84
2022-12-01T08:09:09.491Z,0.85
2022-12-01T08:11:36.648Z,0.84
2022-12-01T08:14:03.824Z,0.80
2022-12-01T08:16:31.487Z,0.82
2022-12-01T08:18:58.742Z,0.82
2022-12-01T08:21:25.999Z,0.81
2022-12-01T08:23:54.947Z,0.78
2022-12-01T08:26:23.252Z,0.78
2022-12-01T08:28:50.381Z,0.82
2022-12-01T08:31:20.513Z,0.80
2022-12-01T08:33:48.493Z,0.84
2022-12-01T08:36:15.811Z,0.88
2022-12-01T08:38:44.955Z,0.90
2022-12-01T08:41:12.991Z,0.91
2022-12-01T08:43:57.071Z,0.93
2022-12-01T08:46:27.180Z,0.94
2022-12-01T08:48:57.259Z,0.94
2022-12-01T08:51:25.199Z,1.00
2022-12-01T08:53:52.338Z,1.05
2022-12-01T08:56:28.864Z,1.07
2022-12-01T08:58:56.321Z,1.13
2022-12-01T09:01:23.531Z,1.19
2022-12-01T09:04:05.224Z,1.23
2022-12-01T09:06:35.405Z,1.28
2022-12-01T09:09:02.555Z,1.32
2022-12-01T09:11:29.712Z,1.37
2022-12-01T09:13:59.068Z,1.36
2022-12-01T09:16:26.289Z,1.36
2022-12-01T09:18:53.464Z,1.37
2022-12-01T09:21:24.033Z,1.40
2022-12-01T09:23:51.409Z,1.37
2022-12-01T09:26:19.657Z,1.38
2022-12-01T09:28:48.052Z,1.42
2022-12-01T09:31:16.562Z,1.43
2022-12-01T09:33:44.174Z,1.42
2022-12-01T09:36:11.391Z,1.43
2022-12-01T09:38:38.993Z,1.44
2022-12-01T09:41:09.368Z,1.47
2022-12-01T09:43:42.099Z,1.50
2022-12-01T09:46:17.170Z,1.53
2022-12-01T09:48:47.180Z,1.56
2022-12-01T09:51:14.998Z,1.58
2022-12-01T09:53:43.094Z,1.62
2022-12-01T09:56:22.490Z,1.63
2022-12-01T09:58:52.836Z,1.63
2022-12-01T10:01:30.700Z,1.61
2022-12-01T10:03:59.925Z,1.60
2022-12-01T10:06:38.031Z,1.55
2022-12-01T10:09:07.916Z,1.56
2022-12-01T10:11:36.868Z,1.56
2022-12-01T10:14:04.629Z,1.58
2022-12-01T10:16:45.899Z,1.62
2022-12-01T10:19:17.992Z,1.66
2022-12-01T10:22:01.226Z,1.69
2022-12-01T10:24:43.959Z,1.67
2022-12-01T10:27:35.369Z,1.65
2022-12-01T10:30:09.968Z,1.67
2022-12-01T10:32:53.945Z,1.68
2022-12-01T10:35:23.922Z,1.69
2022-12-01T10:37:56.608Z,1.69
2022-12-01T10:40:24.411Z,1.66
2022-12-01T10:42:52.035Z,1.66
2022-12-01T10:45:31.985Z,1.67
2022-12-01T10:48:20.179Z,1.71
2022-12-01T10:50:52.180Z,1.71
2022-12-01T10:53:22.147Z,1.73
2022-12-01T10:56:13.556Z,1.71
2022-12-01T10:58:51.388Z,1.72
2022-12-01T11:01:31.951Z,1.75
2022-12-01T11:04:06.420Z,1.74
2022-12-01T11:06:34.636Z,1.74
2022-12-01T11:09:04.800Z,1.75
2022-12-01T11:11:31.806Z,1.76
2022-12-01T11:14:02.006Z,1.77
2022-12-01T11:16:43.743Z,1.75
2022-12-01T11:19:32.485Z,1.78
2022-12-01T11:22:19.670Z,1.81
2022-12-01T11:25:05.815Z,1.84
2022-12-01T11:27:36.546Z,1.84
2022-12-01T11:30:20.128Z,1.87
2022-12-01T11:32:53.175Z,1.87
2022-12-01T11:35:22.171Z,1.89
2022-12-01T11:38:27.287Z,1.90
2022-12-01T11:40:47.269Z,1.91
2022-12-01T11:43:35.205Z,1.85
2022-12-01T11:46:05.001Z,1.85
2022-12-01T11:48:36.611Z,1.82
2022-12-01T11:51:18.860Z,1.86
2022-12-01T11:53:46.662Z,1.89
2022-12-01T11:56:29.105Z,1.94
2022-12-01T11:59:00.622Z,1.97
2022-12-01T12:01:44.195Z,1.99
2022-12-01T12:04:52.978Z,2.01
2022-12-01T12:07:29.582Z,2.05
2022-12-01T12:10:11.654Z,2.05
2022-12-01T12:13:09.992Z,2.07
2022-12-01T12:15:56.758Z,2.02
2022-12-01T12:18:32.517Z,2.01
2022-12-01T12:21:25.725Z,2.00
2022-12-01T12:23:52.912Z,2.03
2022-12-01T12:26:22.749Z,2.05
2022-12-01T12:29:15.167Z,2.11
2022-12-01T12:32:00.691Z,2.14
2022-12-01T12:34:37.463Z,2.18
2022-12-01T12:37:20.474Z,2.19
2022-12-01T12:40:22.718Z,2.27
2022-12-01T12:43:14.555Z,2.31
2022-12-01T12:46:00.720Z,2.31
2022-12-01T12:49:04.003Z,2.31
2022-12-01T12:51:37.747Z,2.28
2022-12-01T12:54:22.055Z,2.24
2022-12-01T12:56:51.790Z,2.21
2022-12-01T12:59:27.143Z,2.20
2022-12-01T13:02:16.244Z,2.19
2022-12-01T13:04:56.572Z,2.15
2022-12-01T13:07:37.319Z,2.16
2022-12-01T13:10:15.008Z,2.18
2022-12-01T13:12:49.655Z,2.22
2022-12-01T13:15:19.873Z,2.20
2022-12-01T13:17:54.489Z,2.21
2022-12-01T13:20:27.677Z,2.21
2022-12-01T13:22:56.372Z,2.20
2022-12-01T13:25:28.371Z,2.17
2022-12-01T13:27:56.198Z,2.13
2022-12-01T13:30:25.461Z,2.07
2022-12-01T13:33:04.217Z,2.08
2022-12-01T13:35:36.593Z,2.09
2022-12-01T13:38:29.966Z,2.07
2022-12-01T13:41:11.836Z,2.04
2022-12-01T13:43:49.475Z,2.04
2022-12-01T13:46:43.712Z,2.05
2022-12-01T13:49:43.466Z,2.05
2022-12-01T13:52:22.864Z,2.04
2022-12-01T13:55:08.309Z,1.99
2022-12-01T13:57:37.885Z,1.96
2022-12-01T14:00:20.017Z,1.96
2022-12-01T14:03:13.229Z,1.93
2022-12-01T14:05:40.373Z,1.91
2022-12-01T14:08:22.633Z,1.94
2022-12-01T14:11:18.579Z,1.92
2022-12-01T14:13:55.166Z,1.93
2022-12-01T14:16:22.984Z,1.93
2022-12-01T14:18:57.727Z,1.92
2022-12-01T14:21:42.587Z,1.90
2022-12-01T14:24:32.199Z,1.88
2022-12-01T14:26:59.528Z,1.88
2022-12-01T14:29:42.456Z,1.86
2022-12-01T14:32:09.525Z,1.83
2022-12-01T14:34:38.134Z,1.80
2022-12-01T14:37:07.151Z,1.78
2022-12-01T14:39:36.530Z,1.75
2022-12-01T14:42:41.165Z,1.73
2022-12-01T14:45:11.922Z,1.74
2022-12-01T14:47:49.610Z,1.75
2022-12-01T14:50:24.896Z,1.73
2022-12-01T14:53:05.326Z,1.69
2022-12-01T14:55:41.777Z,1.71
2022-12-01T14:58:16.508Z,1.69
2022-12-01T15:01:06.580Z,1.68
2022-12-01T15:03:42.862Z,1.69
2022-12-01T15:06:10.494Z,1.71
2022-12-01T15:08:43.466Z,1.68
2022-12-01T15:11:22.705Z,1.69
2022-12-01T15:13:55.193Z,1.69
2022-12-01T15:16:24.890Z,1.67
2022-12-01T15:18:52.355Z,1.66
2022-12-01T15:21:28.388Z,1.65
2022-12-01T15:24:00.979Z,1.60
2022-12-01T15:26:31.106Z,1.62
2022-12-01T15:29:19.277Z,1.58
2022-12-01T15:31:53.418Z,1.56
2022-12-01T15:34:41.745Z,1.53
2022-12-01T15:37:19.922Z,1.54
2022-12-01T15:40:00.291Z,1.55
2022-12-01T15:42:39.557Z,1.50
2022-12-01T15:45:17.703Z,1.44
2022-12-01T15:47:48.782Z,1.36
2022-12-01T15:50:33.358Z,1.37
2022-12-01T15:53:03.283Z,1.35
2022-12-01T15:55:33.276Z,1.32
2022-12-01T15:58:01.459Z,1.37
2022-12-01T16:00:28.600Z,1.39
2022-12-01T16:02:57.597Z,1.41
2022-12-01T16:05:30.707Z,1.39
2022-12-01T16:08:13.063Z,1.36
2022-12-01T16:10:40.522Z,1.34
2022-12-01T16:13:41.884Z,1.29
2022-12-01T16:16:37.433Z,1.29
2022-12-01T16:19:07.495Z,1.25
2022-12-01T16:21:52.533Z,1.23
2022-12-01T16:24:30.572Z,1.22
2022-12-01T16:27:03.655Z,1.19
2022-12-01T16:29:34.573Z,1.19
2022-12-01T16:32:20.812Z,1.22
2022-12-01T16:34:50.243Z,1.20
2022-12-01T16:37:17.651Z,1.17
2022-12-01T16:39:45.024Z,1.13
2022-12-01T16:42:16.558Z,1.16
2022-12-01T16:44:45.656Z,1.18
2022-12-01T16:47:18.388Z,1.19
2022-12-01T16:49:45.598Z,1.19
2022-12-01T16:55:00.057Z,1.12
2022-12-01T16:57:27.186Z,1.13
2022-12-01T16:59:54.289Z,1.16
2022-12-01T17:02:21.575Z,1.12
2022-12-01T17:04:49.204Z,1.11
2022-12-01T17:07:16.686Z,1.07
2022-12-01T17:09:43.899Z,1.03
2022-12-01T17:12:11.055Z,1.06
2022-12-01T17:14:38.316Z,1.06
2022-12-01T17:17:05.518Z,1.05
2022-12-01T17:19:32.613Z,1.04
2022-12-01T17:21:59.987Z,1.01
2022-12-01T17:24:27.129Z,0.96
2022-12-01T17:26:54.260Z,0.92
2022-12-01T17:29:21.381Z,0.89
2022-12-01T17:31:48.517Z,0.89
2022-12-01T17:34:15.676Z,0.90
2022-12-01T17:36:42.848Z,0.90
2022-12-01T17:39:09.960Z,0.93
2022-12-01T17:41:37.219Z,0.93
2022-12-01T17:44:04.972Z,0.95
2022-12-01T17:46:32.263Z,0.92
2022-12-01T17:48:59.442Z,0.93
2022-12-01T17:51:26.577Z,0.89
2022-12-01T17:53:53.893Z,0.87
2022-12-01T17:56:21.133Z,0.84
2022-12-01T17:58:50.476Z,0.77
2022-12-01T18:01:19.578Z,0.77
2022-12-01T18:03:47.543Z,0.78
2022-12-01T18:06:16.276Z,0.78
2022-12-01T18:08:43.435Z,0.75
2022-12-01T18:11:13.942Z,0.77
2022-12-01T18:13:47.153Z,0.76
2022-12-01T18:16:19.682Z,0.75
2022-12-01T18:18:47.136Z,0.75
2022-12-01T18:21:15.907Z,0.71
2022-12-01T18:23:43.283Z,0.66
2022-12-01T18:26:15.781Z,0.66
2022-12-01T18:28:43.967Z,0.65
2022-12-01T18:31:13.686Z,0.62
2022-12-01T18:33:42.766Z,0.63
2022-12-01T18:36:13.212Z,0.63
2022-12-01T18:38:40.677Z,0.62
2022-12-01T18:41:08.628Z,0.63
2022-12-01T18:43:36.235Z,0.65
2022-12-01T18:46:04.846Z,0.67
2022-12-01T18:48:32.867Z,0.65
2022-12-01T18:51:04.091Z,0.60
2022-12-01T18:53:31.623Z,0.58
2022-12-01T18:56:06.348Z,0.56
2022-12-01T18:58:33.840Z,0.58
2022-12-01T19:01:01.460Z,0.55
2022-12-01T19:03:30.205Z,0.59
2022-12-01T19:05:57.919Z,0.60
2022-12-01T19:08:25.078Z,0.61
2022-12-01T19:11:02.464Z,0.60
2022-12-01T19:13:30.727Z,0.56
2022-12-01T19:15:58.099Z,0.51
2022-12-01T19:18:25.209Z,0.49
2022-12-01T19:20:52.436Z,0.47
2022-12-01T19:23:19.671Z,0.45
2022-12-01T19:25:46.798Z,0.44
2022-12-01T19:28:13.898Z,0.41
2022-12-01T19:30:45.347Z,0.42
2022-12-01T19:33:15.380Z,0.40
2022-12-01T19:35:42.596Z,0.38
2022-12-01T19:38:09.686Z,0.38
2022-12-01T19:40:38.496Z,0.36
2022-12-01T19:43:05.620Z,0.38
2022-12-01T19:45:33.692Z,0.35
2022-12-01T19:48:00.961Z,0.34
2022-12-01T19:50:28.081Z,0.36
2022-12-01T19:52:55.179Z,0.38
2022-12-01T19:55:22.271Z,0.39
2022-12-01T19:57:52.329Z,0.39
2022-12-01T20:00:21.988Z,0.40
2022-12-01T20:02:49.761Z,0.40
2022-12-01T20:05:17.052Z,0.41
2022-12-01T20:07:44.268Z,0.40
2022-12-01T20:10:11.550Z,0.39
2022-12-01T20:12:38.885Z,0.40
2022-12-01T20:15:08.676Z,0.41
2022-12-01T20:17:36.754Z,0.40
2022-12-01T20:20:05.072Z,0.38
2022-12-01T20:22:36.030Z,0.37
2022-12-01T20:25:04.440Z,0.36
2022-12-01T20:27:31.925Z,0.39
2022-12-01T20:29:59.197Z,0.40
2022-12-01T20:32:26.363Z,0.40
2022-12-01T20:34:53.675Z,0.41
2022-12-01T20:37:20.934Z,0.39
2022-12-01T20:39:48.076Z,0.37
2022-12-01T20:42:15.215Z,0.34
2022-12-01T20:44:42.369Z,0.32
2022-12-01T20:47:09.492Z,0.30
2022-12-01T20:49:36.701Z,0.35
2022-12-01T20:52:03.968Z,0.38
2022-12-01T20:54:31.487Z,0.42
2022-12-01T20:56:58.990Z,0.43
2022-12-01T20:59:26.641Z,0.44
2022-12-01T21:01:54.436Z,0.43
2022-12-01T21:04:21.673Z,0.43
2022-12-01T21:06:50.231Z,0.44
2022-12-01T21:09:18.039Z,0.45
2022-12-01T21:12:05.750Z,0.46
2022-12-01T21:14:41.710Z,0.45
2022-12-01T21:17:29.268Z,0.46
2022-12-01T21:20:05.256Z,0.44
2022-12-01T21:22:32.494Z,0.38
2022-12-01T21:25:10.606Z,0.35
2022-12-01T21:27:37.998Z,0.35
2022-12-01T21:30:15.981Z,0.36
2022-12-01T21:32:44.203Z,0.36
2022-12-01T21:35:20.429Z,0.35
2022-12-01T21:37:48.690Z,0.35
2022-12-01T21:40:20.395Z,0.35
2022-12-01T21:42:47.811Z,0.38
2022-12-01T21:45:32.044Z,0.37
2022-12-01T21:48:12.408Z,0.35
2022-12-01T21:50:39.513Z,0.31
2022-12-01T21:53:19.335Z,0.27
2022-12-01T21:55:47.716Z,0.23
2022-12-01T21:58:24.030Z,0.27
2022-12-01T22:00:55.984Z,0.27
2022-12-01T22:03:26.276Z,0.27
2022-12-01T22:06:32.969Z,0.24
2022-12-01T22:09:02.121Z,0.23
2022-12-01T22:11:30.570Z,0.20
2022-12-01T22:14:15.519Z,0.19
2022-12-01T22:16:56.985Z,0.16
2022-12-01T22:19:31.324Z,0.21
2022-12-01T22:22:10.550Z,0.18
2022-12-01T22:24:39.908Z,0.17
2022-12-01T22:27:27.230Z,0.12
2022-12-01T22:29:58.419Z,0.11
2022-12-01T22:32:32.930Z,0.11
2022-12-01T22:35:28.991Z,0.12
2022-12-01T22:38:11.301Z,0.12
2022-12-01T22:40:53.672Z,0.11
2022-12-01T22:43:26.945Z,0.08
2022-12-01T22:46:00.272Z,0.06
2022-12-01T22:48:27.325Z,0.04
2022-12-01T22:50:54.876Z,0.05
2022-12-01T22:53:28.394Z,0.03
2022-12-01T22:55:57.074Z,0.01
2022-12-01T22:58:28.496Z,0.01
2022-12-01T23:00:57.788Z,0.04
2022-12-01T23:03:26.227Z,0.04
2022-12-01T23:05:56.525Z,-0.01
2022-12-01T23:08:24.188Z,-0.03
2022-12-01T23:10:51.557Z,0.02
2022-12-01T23:13:23.674Z,0.03
2022-12-01T23:15:53.645Z,0.05
2022-12-01T23:18:22.486Z,0.07
2022-12-01T23:20:59.969Z,0.09
2022-12-01T23:23:40.201Z,0.11
2022-12-01T23:26:08.345Z,0.09
2022-12-01T23:28:37.075Z,0.11
2022-12-01T23:31:04.245Z,0.12
2022-12-01T23:33:32.815Z,0.12
2022-12-01T23:36:12.286Z,0.10
2022-12-01T23:38:42.237Z,0.11
2022-12-01T23:41:33.026Z,0.10
2022-12-01T23:44:04.054Z,0.12
2022-12-01T23:46:32.500Z,0.13
2022-12-01T23:49:02.049Z,0.15
2022-12-01T23:51:40.451Z,0.16
2022-12-01T23:54:14.565Z,0.16
2022-12-01T23:56:41.745Z,0.15
2022-12-01T23:59:13.389Z,0.15
